sensor_id;sensor_type;location;lat;lon;timestamp;temperature;humidity
37285;DHT22;23172;53.550;9.964;2023-04-01T00:01:14;12.90;99.90
37285;DHT22;23172;53.550;9.964;2023-04-01T00:06:17;12.80;99.90
37285;DHT22;23172;53.550;9.964;2023-04-01T00:11:21;12.80;99.90
37285;DHT22;23172;53.550;9.964;2023-04-01T00:16:23;12.70;99.90
37285;DHT22;23172;53.550;9.964;2023-04-01T00:21:25;12.70;99.90
37285;DHT22;23172;53.550;9.964;2023-04-01T00:26:28;12.70;99.90
37285;DHT22;23172;53.550;9.964;2023-04-01T00:31:30;12.70;99.90
37285;DHT22;23172;53.550;9.964;2023-04-01T00:36:32;12.70;99.90
37285;DHT22;23172;53.550;9.964;2023-04-01T00:41:35;12.70;99.90
37285;DHT22;23172;53.550;9.964;2023-04-01T00:46:37;12.70;99.90
37285;DHT22;23172;53.550;9.964;2023-04-01T00:51:39;12.70;99.90
37285;DHT22;23172;53.550;9.964;2023-04-01T00:56:46;12.70;99.90
37285;DHT22;23172;53.550;9.964;2023-04-01T01:01:50;12.70;99.90
37285;DHT22;23172;53.550;9.964;2023-04-01T01:06:59;12.70;99.90
37285;DHT22;23172;53.550;9.964;2023-04-01T01:12:08;12.70;99.90
37285;DHT22;23172;53.550;9.964;2023-04-01T01:17:17;12.70;99.90
37285;DHT22;23172;53.550;9.964;2023-04-01T01:22:39;12.60;99.90
37285;DHT22;23172;53.550;9.964;2023-04-01T01:27:54;12.70;99.90
37285;DHT22;23172;53.550;9.964;2023-04-01T01:38:34;12.70;99.90
37285;DHT22;23172;53.550;9.964;2023-04-01T01:43:39;12.70;99.90
37285;DHT22;23172;53.550;9.964;2023-04-01T01:48:42;12.60;99.90
37285;DHT22;23172;53.550;9.964;2023-04-01T01:53:46;12.60;99.90
37285;DHT22;23172;53.550;9.964;2023-04-01T01:58:50;12.60;99.90
37285;DHT22;23172;53.550;9.964;2023-04-01T02:03:54;12.60;99.90
37285;DHT22;23172;53.550;9.964;2023-04-01T02:09:01;12.60;99.90
37285;DHT22;23172;53.550;9.964;2023-04-01T02:14:06;12.60;99.90
37285;DHT22;23172;53.550;9.964;2023-04-01T02:19:10;12.60;99.90
37285;DHT22;23172;53.550;9.964;2023-04-01T02:24:15;12.60;99.90
37285;DHT22;23172;53.550;9.964;2023-04-01T02:29:17;12.60;99.90
37285;DHT22;23172;53.550;9.964;2023-04-01T02:34:19;12.60;99.90
37285;DHT22;23172;53.550;9.964;2023-04-01T02:39:24;12.50;99.90
37285;DHT22;23172;53.550;9.964;2023-04-01T02:44:26;12.50;99.90
37285;DHT22;23172;53.550;9.964;2023-04-01T02:49:28;12.50;99.90
37285;DHT22;23172;53.550;9.964;2023-04-01T02:54:31;12.50;99.90
37285;DHT22;23172;53.550;9.964;2023-04-01T02:59:33;12.50;99.90
37285;DHT22;23172;53.550;9.964;2023-04-01T03:04:35;12.50;99.90
37285;DHT22;23172;53.550;9.964;2023-04-01T03:09:39;12.50;99.90
37285;DHT22;23172;53.550;9.964;2023-04-01T03:14:41;12.50;99.90
37285;DHT22;23172;53.550;9.964;2023-04-01T03:19:43;12.50;99.90
37285;DHT22;23172;53.550;9.964;2023-04-01T03:24:46;12.40;99.90
37285;DHT22;23172;53.550;9.964;2023-04-01T03:29:48;12.40;99.90
37285;DHT22;23172;53.550;9.964;2023-04-01T03:34:49;12.40;99.90
37285;DHT22;23172;53.550;9.964;2023-04-01T03:39:53;12.50;99.90
37285;DHT22;23172;53.550;9.964;2023-04-01T03:44:54;12.50;99.90
37285;DHT22;23172;53.550;9.964;2023-04-01T03:49:56;12.50;99.90
37285;DHT22;23172;53.550;9.964;2023-04-01T03:55:00;12.50;99.90
37285;DHT22;23172;53.550;9.964;2023-04-01T04:00:02;12.50;99.90
37285;DHT22;23172;53.550;9.964;2023-04-01T04:05:05;12.50;99.90
37285;DHT22;23172;53.550;9.964;2023-04-01T04:10:09;12.50;99.90
37285;DHT22;23172;53.550;9.964;2023-04-01T04:15:11;12.50;99.90
37285;DHT22;23172;53.550;9.964;2023-04-01T04:20:14;12.50;99.90
37285;DHT22;23172;53.550;9.964;2023-04-01T04:25:17;12.50;99.90
37285;DHT22;23172;53.550;9.964;2023-04-01T04:30:19;12.50;99.90
37285;DHT22;23172;53.550;9.964;2023-04-01T04:35:21;12.50;99.90
37285;DHT22;23172;53.550;9.964;2023-04-01T04:40:24;12.50;99.90
37285;DHT22;23172;53.550;9.964;2023-04-01T04:45:26;12.50;99.90
37285;DHT22;23172;53.550;9.964;2023-04-01T04:50:28;12.50;99.90
37285;DHT22;23172;53.550;9.964;2023-04-01T04:55:31;12.50;99.90
37285;DHT22;23172;53.550;9.964;2023-04-01T05:00:33;12.50;99.90
37285;DHT22;23172;53.550;9.964;2023-04-01T05:05:35;12.60;99.90
37285;DHT22;23172;53.550;9.964;2023-04-01T05:10:38;12.60;99.90
37285;DHT22;23172;53.550;9.964;2023-04-01T05:15:40;12.60;99.90
37285;DHT22;23172;53.550;9.964;2023-04-01T05:20:47;12.60;99.90
37285;DHT22;23172;53.550;9.964;2023-04-01T05:25:51;12.50;99.90
37285;DHT22;23172;53.550;9.964;2023-04-01T05:30:53;12.60;99.90
37285;DHT22;23172;53.550;9.964;2023-04-01T05:35:55;12.60;99.90
37285;DHT22;23172;53.550;9.964;2023-04-01T05:41:00;12.60;99.90
37285;DHT22;23172;53.550;9.964;2023-04-01T05:46:02;12.60;99.90
37285;DHT22;23172;53.550;9.964;2023-04-01T05:51:05;12.50;99.90
37285;DHT22;23172;53.550;9.964;2023-04-01T05:56:08;12.30;99.90
37285;DHT22;23172;53.550;9.964;2023-04-01T06:01:11;12.20;99.90
37285;DHT22;23172;53.550;9.964;2023-04-01T06:06:15;12.10;99.90
37285;DHT22;23172;53.550;9.964;2023-04-01T06:11:26;12.00;99.90
37285;DHT22;23172;53.550;9.964;2023-04-01T06:16:38;11.90;99.90
37285;DHT22;23172;53.550;9.964;2023-04-01T06:22:08;11.80;99.90
37285;DHT22;23172;53.550;9.964;2023-04-01T06:27:24;11.70;99.90
37285;DHT22;23172;53.550;9.964;2023-04-01T06:32:55;11.70;99.90
37285;DHT22;23172;53.550;9.964;2023-04-01T06:38:10;11.60;99.90
37285;DHT22;23172;53.550;9.964;2023-04-01T06:43:21;11.50;99.90
37285;DHT22;23172;53.550;9.964;2023-04-01T06:48:51;11.50;99.90
37285;DHT22;23172;53.550;9.964;2023-04-01T06:54:01;11.40;99.90
37285;DHT22;23172;53.550;9.964;2023-04-01T06:59:12;11.40;99.90
37285;DHT22;23172;53.550;9.964;2023-04-01T07:04:17;11.30;99.90
37285;DHT22;23172;53.550;9.964;2023-04-01T07:09:25;11.30;99.90
37285;DHT22;23172;53.550;9.964;2023-04-01T07:14:32;11.30;99.90
37285;DHT22;23172;53.550;9.964;2023-04-01T07:19:41;11.30;99.90
37285;DHT22;23172;53.550;9.964;2023-04-01T07:24:44;11.20;99.90
37285;DHT22;23172;53.550;9.964;2023-04-01T07:29:48;11.20;99.90
37285;DHT22;23172;53.550;9.964;2023-04-01T07:35:02;11.10;99.90
37285;DHT22;23172;53.550;9.964;2023-04-01T07:40:14;11.00;99.90
37285;DHT22;23172;53.550;9.964;2023-04-01T07:45:25;11.00;99.90
37285;DHT22;23172;53.550;9.964;2023-04-01T07:50:29;10.90;99.90
37285;DHT22;23172;53.550;9.964;2023-04-01T07:55:36;10.80;99.90
37285;DHT22;23172;53.550;9.964;2023-04-01T08:00:48;10.90;99.90
37285;DHT22;23172;53.550;9.964;2023-04-01T08:05:56;10.90;99.90
37285;DHT22;23172;53.550;9.964;2023-04-01T08:11:04;10.90;99.90
37285;DHT22;23172;53.550;9.964;2023-04-01T08:16:16;10.90;99.90
37285;DHT22;23172;53.550;9.964;2023-04-01T08:21:22;11.00;99.90
37285;DHT22;23172;53.550;9.964;2023-04-01T08:26:32;11.00;99.90
37285;DHT22;23172;53.550;9.964;2023-04-01T08:31:39;11.00;99.90
37285;DHT22;23172;53.550;9.964;2023-04-01T08:36:45;11.10;99.60
37285;DHT22;23172;53.550;9.964;2023-04-01T08:42:14;11.10;99.40
37285;DHT22;23172;53.550;9.964;2023-04-01T08:47:37;11.10;99.10
37285;DHT22;23172;53.550;9.964;2023-04-01T08:52:44;11.20;99.20
37285;DHT22;23172;53.550;9.964;2023-04-01T08:58:01;11.20;99.10
37285;DHT22;23172;53.550;9.964;2023-04-01T09:03:39;11.20;98.80
37285;DHT22;23172;53.550;9.964;2023-04-01T09:09:00;11.20;98.50
37285;DHT22;23172;53.550;9.964;2023-04-01T09:14:17;11.30;98.40
37285;DHT22;23172;53.550;9.964;2023-04-01T09:19:32;11.40;98.70
37285;DHT22;23172;53.550;9.964;2023-04-01T09:25:01;11.50;98.30
37285;DHT22;23172;53.550;9.964;2023-04-01T09:30:31;11.50;98.00
37285;DHT22;23172;53.550;9.964;2023-04-01T09:35:46;11.50;97.50
37285;DHT22;23172;53.550;9.964;2023-04-01T09:40:56;11.60;97.50
37285;DHT22;23172;53.550;9.964;2023-04-01T09:46:12;11.60;97.60
37285;DHT22;23172;53.550;9.964;2023-04-01T09:51:31;11.60;97.30
37285;DHT22;23172;53.550;9.964;2023-04-01T09:56:59;11.50;97.30
37285;DHT22;23172;53.550;9.964;2023-04-01T10:08:25;11.50;97.30
37285;DHT22;23172;53.550;9.964;2023-04-01T10:19:37;11.60;97.00
37285;DHT22;23172;53.550;9.964;2023-04-01T10:47:48;11.50;96.70
37285;DHT22;23172;53.550;9.964;2023-04-01T10:53:16;11.60;96.70
37285;DHT22;23172;53.550;9.964;2023-04-01T10:58:49;11.60;96.50
37285;DHT22;23172;53.550;9.964;2023-04-01T11:10:45;11.60;96.50
37285;DHT22;23172;53.550;9.964;2023-04-01T11:21:51;11.50;96.20
37285;DHT22;23172;53.550;9.964;2023-04-01T11:27:08;11.50;96.30
37285;DHT22;23172;53.550;9.964;2023-04-01T11:32:20;11.40;96.20
37285;DHT22;23172;53.550;9.964;2023-04-01T11:37:33;11.90;95.50
37285;DHT22;23172;53.550;9.964;2023-04-01T11:42:47;12.30;94.50
37285;DHT22;23172;53.550;9.964;2023-04-01T11:48:12;12.50;93.90
37285;DHT22;23172;53.550;9.964;2023-04-01T11:53:23;12.60;93.20
37285;DHT22;23172;53.550;9.964;2023-04-01T11:58:49;12.80;93.00
37285;DHT22;23172;53.550;9.964;2023-04-01T12:09:47;12.50;92.00
37285;DHT22;23172;53.550;9.964;2023-04-01T12:15:00;12.50;91.90
37285;DHT22;23172;53.550;9.964;2023-04-01T12:20:22;11.70;93.00
37285;DHT22;23172;53.550;9.964;2023-04-01T12:25:39;11.30;93.80
37285;DHT22;23172;53.550;9.964;2023-04-01T12:31:01;11.10;94.20
37285;DHT22;23172;53.550;9.964;2023-04-01T12:36:17;11.00;94.50
37285;DHT22;23172;53.550;9.964;2023-04-01T12:41:26;11.60;93.90
37285;DHT22;23172;53.550;9.964;2023-04-01T12:46:41;11.20;94.30
37285;DHT22;23172;53.550;9.964;2023-04-01T12:52:07;10.90;94.50
37285;DHT22;23172;53.550;9.964;2023-04-01T12:57:26;11.60;93.60
37285;DHT22;23172;53.550;9.964;2023-04-01T13:02:40;11.20;94.00
37285;DHT22;23172;53.550;9.964;2023-04-01T13:08:09;11.00;94.40
37285;DHT22;23172;53.550;9.964;2023-04-01T13:13:27;11.70;93.60
37285;DHT22;23172;53.550;9.964;2023-04-01T13:18:39;11.30;94.10
37285;DHT22;23172;53.550;9.964;2023-04-01T13:23:54;11.20;94.30
37285;DHT22;23172;53.550;9.964;2023-04-01T13:29:03;11.00;94.40
37285;DHT22;23172;53.550;9.964;2023-04-01T13:34:19;10.70;94.40
37285;DHT22;23172;53.550;9.964;2023-04-01T13:39:33;10.60;94.60
37285;DHT22;23172;53.550;9.964;2023-04-01T13:44:41;10.50;94.60
37285;DHT22;23172;53.550;9.964;2023-04-01T13:50:04;10.40;94.60
37285;DHT22;23172;53.550;9.964;2023-04-01T13:55:23;10.30;94.70
37285;DHT22;23172;53.550;9.964;2023-04-01T14:00:38;10.30;94.80
37285;DHT22;23172;53.550;9.964;2023-04-01T14:06:05;10.30;94.60
37285;DHT22;23172;53.550;9.964;2023-04-01T14:11:16;10.40;94.50
37285;DHT22;23172;53.550;9.964;2023-04-01T14:22:05;10.30;94.50
37285;DHT22;23172;53.550;9.964;2023-04-01T14:27:47;10.30;94.60
37285;DHT22;23172;53.550;9.964;2023-04-01T14:32:57;10.20;94.70
37285;DHT22;23172;53.550;9.964;2023-04-01T14:44:11;10.30;94.80
37285;DHT22;23172;53.550;9.964;2023-04-01T14:49:21;10.30;94.40
37285;DHT22;23172;53.550;9.964;2023-04-01T14:54:31;10.30;94.30
37285;DHT22;23172;53.550;9.964;2023-04-01T14:59:39;10.20;94.10
37285;DHT22;23172;53.550;9.964;2023-04-01T15:04:53;10.20;94.30
37285;DHT22;23172;53.550;9.964;2023-04-01T15:10:00;10.20;94.20
37285;DHT22;23172;53.550;9.964;2023-04-01T15:15:24;10.10;94.20
37285;DHT22;23172;53.550;9.964;2023-04-01T15:26:13;10.10;94.20
37285;DHT22;23172;53.550;9.964;2023-04-01T15:31:24;10.00;94.30
37285;DHT22;23172;53.550;9.964;2023-04-01T15:36:38;9.90;94.60
37285;DHT22;23172;53.550;9.964;2023-04-01T15:42:04;9.90;94.80
37285;DHT22;23172;53.550;9.964;2023-04-01T15:47:29;10.00;94.70
37285;DHT22;23172;53.550;9.964;2023-04-01T15:52:43;9.80;94.70
37285;DHT22;23172;53.550;9.964;2023-04-01T15:58:00;9.80;94.90
37285;DHT22;23172;53.550;9.964;2023-04-01T16:03:22;9.70;95.00
37285;DHT22;23172;53.550;9.964;2023-04-01T16:09:09;9.70;95.10
37285;DHT22;23172;53.550;9.964;2023-04-01T16:14:26;9.60;95.10
37285;DHT22;23172;53.550;9.964;2023-04-01T16:19:39;9.50;95.10
37285;DHT22;23172;53.550;9.964;2023-04-01T16:24:46;9.40;95.30
37285;DHT22;23172;53.550;9.964;2023-04-01T16:29:53;9.40;95.10
37285;DHT22;23172;53.550;9.964;2023-04-01T16:40:31;9.30;95.10
37285;DHT22;23172;53.550;9.964;2023-04-01T16:45:41;9.20;94.90
37285;DHT22;23172;53.550;9.964;2023-04-01T16:50:53;9.00;95.00
37285;DHT22;23172;53.550;9.964;2023-04-01T16:56:04;8.90;95.20
37285;DHT22;23172;53.550;9.964;2023-04-01T17:01:13;8.90;95.20
37285;DHT22;23172;53.550;9.964;2023-04-01T17:06:24;8.90;95.20
37285;DHT22;23172;53.550;9.964;2023-04-01T17:11:31;9.00;95.30
37285;DHT22;23172;53.550;9.964;2023-04-01T17:17:01;8.80;95.20
37285;DHT22;23172;53.550;9.964;2023-04-01T17:22:13;8.80;95.20
37285;DHT22;23172;53.550;9.964;2023-04-01T17:27:30;8.70;95.30
37285;DHT22;23172;53.550;9.964;2023-04-01T17:32:45;8.60;95.10
37285;DHT22;23172;53.550;9.964;2023-04-01T17:38:01;8.60;95.10
37285;DHT22;23172;53.550;9.964;2023-04-01T17:43:09;8.60;95.10
37285;DHT22;23172;53.550;9.964;2023-04-01T17:48:21;8.70;95.00
37285;DHT22;23172;53.550;9.964;2023-04-01T17:53:33;8.60;94.90
37285;DHT22;23172;53.550;9.964;2023-04-01T17:58:44;8.60;94.60
37285;DHT22;23172;53.550;9.964;2023-04-01T18:04:14;8.50;94.60
37285;DHT22;23172;53.550;9.964;2023-04-01T18:09:26;8.50;94.60
37285;DHT22;23172;53.550;9.964;2023-04-01T18:15:15;8.40;94.60
37285;DHT22;23172;53.550;9.964;2023-04-01T18:20:43;8.40;94.40
37285;DHT22;23172;53.550;9.964;2023-04-01T18:25:49;8.40;94.30
37285;DHT22;23172;53.550;9.964;2023-04-01T18:30:54;8.30;94.40
37285;DHT22;23172;53.550;9.964;2023-04-01T18:36:09;8.30;94.10
37285;DHT22;23172;53.550;9.964;2023-04-01T18:41:22;8.30;94.00
37285;DHT22;23172;53.550;9.964;2023-04-01T18:46:31;8.20;93.90
37285;DHT22;23172;53.550;9.964;2023-04-01T18:51:44;8.20;94.10
37285;DHT22;23172;53.550;9.964;2023-04-01T18:56:48;8.30;93.90
37285;DHT22;23172;53.550;9.964;2023-04-01T19:01:59;8.30;93.80
37285;DHT22;23172;53.550;9.964;2023-04-01T19:07:32;8.20;93.60
37285;DHT22;23172;53.550;9.964;2023-04-01T19:12:39;8.20;93.40
37285;DHT22;23172;53.550;9.964;2023-04-01T19:17:54;8.10;93.50
37285;DHT22;23172;53.550;9.964;2023-04-01T19:28:43;8.10;92.80
37285;DHT22;23172;53.550;9.964;2023-04-01T19:33:53;8.10;92.70
37285;DHT22;23172;53.550;9.964;2023-04-01T19:39:09;8.10;92.70
37285;DHT22;23172;53.550;9.964;2023-04-01T19:44:29;8.00;92.50
37285;DHT22;23172;53.550;9.964;2023-04-01T19:49:46;8.00;92.50
37285;DHT22;23172;53.550;9.964;2023-04-01T19:54:56;8.00;92.40
37285;DHT22;23172;53.550;9.964;2023-04-01T20:00:07;8.00;92.30
37285;DHT22;23172;53.550;9.964;2023-04-01T20:05:46;8.00;92.00
37285;DHT22;23172;53.550;9.964;2023-04-01T20:10:59;7.90;91.60
37285;DHT22;23172;53.550;9.964;2023-04-01T20:16:06;7.90;91.40
37285;DHT22;23172;53.550;9.964;2023-04-01T20:21:21;7.80;91.10
37285;DHT22;23172;53.550;9.964;2023-04-01T20:26:30;7.80;90.80
37285;DHT22;23172;53.550;9.964;2023-04-01T20:31:37;7.70;90.60
37285;DHT22;23172;53.550;9.964;2023-04-01T20:36:51;7.60;90.30
37285;DHT22;23172;53.550;9.964;2023-04-01T20:42:11;7.40;90.30
37285;DHT22;23172;53.550;9.964;2023-04-01T20:47:39;7.40;90.50
37285;DHT22;23172;53.550;9.964;2023-04-01T20:52:53;7.40;90.30
37285;DHT22;23172;53.550;9.964;2023-04-01T20:58:08;7.30;90.30
37285;DHT22;23172;53.550;9.964;2023-04-01T21:03:23;7.20;90.30
37285;DHT22;23172;53.550;9.964;2023-04-01T21:08:39;7.10;90.10
37285;DHT22;23172;53.550;9.964;2023-04-01T21:14:24;7.00;90.00
37285;DHT22;23172;53.550;9.964;2023-04-01T21:19:40;6.90;90.10
37285;DHT22;23172;53.550;9.964;2023-04-01T21:30:23;6.80;90.30
37285;DHT22;23172;53.550;9.964;2023-04-01T21:35:33;6.70;89.90
37285;DHT22;23172;53.550;9.964;2023-04-01T21:46:25;6.60;89.50
37285;DHT22;23172;53.550;9.964;2023-04-01T21:51:49;6.40;89.30
37285;DHT22;23172;53.550;9.964;2023-04-01T22:03:11;6.30;89.90
37285;DHT22;23172;53.550;9.964;2023-04-01T22:08:35;6.20;89.90
37285;DHT22;23172;53.550;9.964;2023-04-01T22:13:41;6.20;89.90
37285;DHT22;23172;53.550;9.964;2023-04-01T22:18:55;6.10;90.00
37285;DHT22;23172;53.550;9.964;2023-04-01T22:24:06;6.10;90.00
37285;DHT22;23172;53.550;9.964;2023-04-01T22:29:17;6.10;90.20
37285;DHT22;23172;53.550;9.964;2023-04-01T22:34:27;6.00;89.80
37285;DHT22;23172;53.550;9.964;2023-04-01T22:39:54;6.00;90.00
37285;DHT22;23172;53.550;9.964;2023-04-01T22:45:10;5.90;90.00
37285;DHT22;23172;53.550;9.964;2023-04-01T22:50:25;5.90;90.00
37285;DHT22;23172;53.550;9.964;2023-04-01T22:55:34;5.80;90.10
37285;DHT22;23172;53.550;9.964;2023-04-01T23:00:39;5.80;90.00
37285;DHT22;23172;53.550;9.964;2023-04-01T23:05:47;5.70;90.10
37285;DHT22;23172;53.550;9.964;2023-04-01T23:10:53;5.60;90.10
37285;DHT22;23172;53.550;9.964;2023-04-01T23:15:56;5.60;90.20
37285;DHT22;23172;53.550;9.964;2023-04-01T23:21:09;5.60;90.10
37285;DHT22;23172;53.550;9.964;2023-04-01T23:26:19;5.60;90.10
37285;DHT22;23172;53.550;9.964;2023-04-01T23:31:35;5.50;90.50
37285;DHT22;23172;53.550;9.964;2023-04-01T23:36:39;5.50;90.20
37285;DHT22;23172;53.550;9.964;2023-04-01T23:41:43;5.40;90.30
37285;DHT22;23172;53.550;9.964;2023-04-01T23:46:47;5.40;90.30
37285;DHT22;23172;53.550;9.964;2023-04-01T23:51:53;5.30;90.30
37285;DHT22;23172;53.550;9.964;2023-04-01T23:56:57;5.30;90.30
